createdAt,value
2022-08-30T00:00:19.678Z,0.00
2022-08-30T00:01:19.930Z,0.00
2022-08-30T00:02:20.243Z,0.00
2022-08-30T00:03:20.876Z,0.00
2022-08-30T00:04:20.713Z,0.00
2022-08-30T00:05:20.932Z,0.00
2022-08-30T00:06:21.207Z,0.00
2022-08-30T00:07:21.500Z,0.00
2022-08-30T00:08:21.775Z,0.00
2022-08-30T00:09:22.106Z,0.00
2022-08-30T00:10:22.412Z,0.00
2022-08-30T00:11:22.739Z,0.00
2022-08-30T00:12:23.028Z,0.00
2022-08-30T00:13:23.303Z,0.00
2022-08-30T00:14:23.603Z,0.00
2022-08-30T00:15:23.966Z,0.00
2022-08-30T00:16:24.413Z,0.00
2022-08-30T00:17:24.581Z,0.00
2022-08-30T00:18:24.894Z,0.00
2022-08-30T00:19:25.114Z,0.00
2022-08-30T00:20:25.435Z,0.00
2022-08-30T00:21:25.744Z,0.00
2022-08-30T00:22:26.046Z,0.00
2022-08-30T00:23:26.343Z,0.00
2022-08-30T00:24:26.587Z,0.00
2022-08-30T00:25:26.896Z,0.00
2022-08-30T00:26:27.195Z,0.00
2022-08-30T00:27:27.515Z,0.00
2022-08-30T00:28:27.731Z,0.00
2022-08-30T00:29:27.905Z,0.00
2022-08-30T00:30:28.224Z,0.00
2022-08-30T00:31:28.559Z,0.00
2022-08-30T00:32:28.791Z,0.00
2022-08-30T00:33:29.002Z,0.00
2022-08-30T00:34:29.326Z,0.00
2022-08-30T00:35:29.517Z,0.00
2022-08-30T00:36:29.834Z,0.00
2022-08-30T00:37:30.041Z,0.00
2022-08-30T00:38:30.302Z,0.00
2022-08-30T00:39:30.549Z,0.00
2022-08-30T00:40:30.961Z,0.00
2022-08-30T00:41:31.196Z,0.00
2022-08-30T00:42:31.491Z,0.00
2022-08-30T00:43:31.784Z,0.00
2022-08-30T00:44:32.148Z,0.00
2022-08-30T00:45:32.329Z,0.00
2022-08-30T00:46:32.846Z,0.00
2022-08-30T00:47:32.995Z,0.00
2022-08-30T00:48:33.243Z,0.00
2022-08-30T00:49:33.461Z,0.00
2022-08-30T00:50:33.738Z,0.00
2022-08-30T00:51:34.073Z,0.00
2022-08-30T00:52:34.320Z,0.00
2022-08-30T00:53:34.724Z,0.00
2022-08-30T00:54:34.953Z,0.00
2022-08-30T00:55:35.235Z,0.00
2022-08-30T00:56:35.558Z,0.00
2022-08-30T00:57:35.856Z,0.00
2022-08-30T00:58:36.148Z,0.00
2022-08-30T00:59:36.448Z,0.00
2022-08-30T01:00:36.786Z,0.00
2022-08-30T01:01:37.181Z,0.00
2022-08-30T01:02:37.469Z,0.00
2022-08-30T01:03:37.664Z,0.00
2022-08-30T01:04:37.886Z,0.00
2022-08-30T01:05:38.188Z,0.00
2022-08-30T01:06:38.414Z,0.00
2022-08-30T01:07:38.748Z,0.00
2022-08-30T01:08:39.055Z,0.00
2022-08-30T01:09:39.335Z,0.00
2022-08-30T01:10:39.607Z,0.00
2022-08-30T01:11:39.900Z,0.00
2022-08-30T01:12:40.141Z,0.00
2022-08-30T01:13:40.396Z,0.00
2022-08-30T01:14:40.618Z,0.00
2022-08-30T01:15:40.986Z,0.00
2022-08-30T01:16:41.184Z,0.00
2022-08-30T01:17:41.486Z,0.00
2022-08-30T01:18:41.827Z,0.00
2022-08-30T01:19:42.066Z,0.00
2022-08-30T01:20:42.339Z,0.00
2022-08-30T01:21:42.595Z,0.00
2022-08-30T01:22:42.948Z,0.00
2022-08-30T01:23:43.229Z,0.00
2022-08-30T01:24:43.552Z,0.00
2022-08-30T01:25:43.854Z,0.00
2022-08-30T01:26:44.155Z,0.00
2022-08-30T01:27:44.460Z,0.00
2022-08-30T01:28:44.746Z,0.00
2022-08-30T01:29:45.107Z,0.00
2022-08-30T01:30:45.422Z,0.00
2022-08-30T01:31:45.560Z,0.00
2022-08-30T01:32:45.907Z,0.00
2022-08-30T01:33:46.152Z,0.00
2022-08-30T01:34:46.454Z,0.00
2022-08-30T01:35:47.036Z,0.00
2022-08-30T01:36:46.986Z,0.00
2022-08-30T01:37:47.225Z,0.00
2022-08-30T01:38:47.674Z,0.00
2022-08-30T01:39:47.892Z,0.00
2022-08-30T01:40:48.240Z,0.00
2022-08-30T01:41:48.525Z,0.00
2022-08-30T01:42:48.850Z,0.00
2022-08-30T01:43:49.202Z,0.00
2022-08-30T01:44:49.449Z,0.00
2022-08-30T01:45:49.705Z,0.00
2022-08-30T01:46:49.951Z,0.00
2022-08-30T01:47:50.247Z,0.00
2022-08-30T01:48:54.306Z,0.00
2022-08-30T01:49:50.848Z,0.00
2022-08-30T01:50:51.097Z,0.00
2022-08-30T01:51:51.435Z,0.00
2022-08-30T01:52:52.625Z,0.00
2022-08-30T01:53:52.811Z,0.00
2022-08-30T01:54:52.294Z,0.00
2022-08-30T01:55:52.594Z,0.00
2022-08-30T01:56:52.628Z,0.00
2022-08-30T01:57:52.970Z,0.00
2022-08-30T01:58:53.260Z,0.00
2022-08-30T01:59:53.561Z,0.00
2022-08-30T02:00:53.976Z,0.00
2022-08-30T02:01:54.171Z,0.00
2022-08-30T02:02:54.489Z,0.00
2022-08-30T02:03:54.867Z,0.00
2022-08-30T02:04:55.114Z,0.00
2022-08-30T02:05:55.379Z,0.00
2022-08-30T02:06:55.719Z,0.00
2022-08-30T02:07:55.981Z,0.00
2022-08-30T02:08:56.293Z,0.00
2022-08-30T02:09:56.663Z,0.00
2022-08-30T02:10:56.906Z,0.00
2022-08-30T02:11:57.219Z,0.00
2022-08-30T02:12:57.542Z,0.00
2022-08-30T02:13:57.718Z,0.00
2022-08-30T02:14:57.989Z,0.00
2022-08-30T02:15:58.267Z,0.00
2022-08-30T02:16:58.677Z,0.00
2022-08-30T02:17:58.924Z,0.00
2022-08-30T02:18:59.288Z,0.00
2022-08-30T02:19:59.462Z,0.00
2022-08-30T02:20:59.773Z,0.00
2022-08-30T02:22:00.074Z,0.00
2022-08-30T02:23:01.547Z,0.00
2022-08-30T02:24:01.106Z,0.00
2022-08-30T02:25:00.919Z,0.00
2022-08-30T02:26:01.111Z,0.00
2022-08-30T02:27:01.417Z,0.00
2022-08-30T02:28:01.667Z,0.00
2022-08-30T02:29:02.042Z,0.00
2022-08-30T02:30:02.331Z,0.00
2022-08-30T02:31:02.759Z,0.00
2022-08-30T02:32:02.977Z,0.00
2022-08-30T02:33:03.276Z,0.00
2022-08-30T02:34:03.640Z,0.00
2022-08-30T02:35:03.976Z,0.00
2022-08-30T02:36:04.242Z,0.00
2022-08-30T02:37:04.520Z,0.00
2022-08-30T02:38:04.825Z,0.00
2022-08-30T02:39:05.181Z,0.00
2022-08-30T02:40:05.927Z,0.00
2022-08-30T02:41:05.750Z,0.00
2022-08-30T02:42:05.925Z,0.00
2022-08-30T02:43:06.224Z,0.00
2022-08-30T02:44:06.508Z,0.00
2022-08-30T02:45:06.845Z,0.00
2022-08-30T02:46:07.254Z,0.00
2022-08-30T02:47:07.443Z,0.00
2022-08-30T02:48:07.749Z,0.00
2022-08-30T02:50:09.430Z,0.00
2022-08-30T02:51:09.559Z,0.00
2022-08-30T02:52:08.937Z,0.00
2022-08-30T02:53:09.402Z,0.00
2022-08-30T02:54:09.531Z,0.00
2022-08-30T02:55:09.827Z,0.00
2022-08-30T02:56:10.181Z,0.00
2022-08-30T02:57:16.084Z,0.00
2022-08-30T02:58:11.756Z,0.00
2022-08-30T02:59:11.957Z,0.00
2022-08-30T03:00:11.352Z,0.00
2022-08-30T03:01:11.709Z,0.00
2022-08-30T03:02:12.022Z,0.00
2022-08-30T03:03:12.516Z,0.00
2022-08-30T03:04:12.688Z,0.00
2022-08-30T03:05:12.863Z,0.00
2022-08-30T03:06:13.034Z,0.00
2022-08-30T03:07:13.389Z,0.00
2022-08-30T03:08:13.659Z,0.00
2022-08-30T03:09:13.976Z,0.00
2022-08-30T03:10:14.660Z,0.00
2022-08-30T03:11:14.614Z,0.00
2022-08-30T03:12:14.922Z,0.00
2022-08-30T03:13:15.416Z,0.00
2022-08-30T03:14:15.569Z,0.00
2022-08-30T03:15:15.795Z,0.00
2022-08-30T03:16:16.108Z,0.00
2022-08-30T03:17:16.275Z,0.00
2022-08-30T03:18:16.615Z,0.00
2022-08-30T03:19:16.977Z,0.00
2022-08-30T03:20:17.267Z,0.00
2022-08-30T03:21:17.583Z,0.00
2022-08-30T03:22:17.909Z,0.00
2022-08-30T03:23:21.666Z,0.00
2022-08-30T03:24:18.444Z,0.00
2022-08-30T03:25:18.825Z,0.00
2022-08-30T03:26:19.500Z,0.00
2022-08-30T03:27:19.329Z,0.00
2022-08-30T03:28:19.580Z,0.00
2022-08-30T03:29:19.863Z,0.00
2022-08-30T03:30:20.187Z,0.00
2022-08-30T03:31:20.550Z,0.00
2022-08-30T03:32:20.872Z,0.00
2022-08-30T03:33:21.962Z,0.00
2022-08-30T03:34:21.398Z,0.00
2022-08-30T03:35:21.752Z,0.00
2022-08-30T03:36:22.061Z,0.00
2022-08-30T03:37:26.858Z,0.00
2022-08-30T03:38:23.590Z,0.00
2022-08-30T03:39:22.876Z,0.00
2022-08-30T03:40:23.199Z,0.00
2022-08-30T03:41:23.423Z,0.00
2022-08-30T03:42:23.714Z,0.00
2022-08-30T03:43:24.043Z,0.00
2022-08-30T03:44:24.319Z,0.00
2022-08-30T03:45:24.589Z,0.00
2022-08-30T03:46:24.833Z,0.00
2022-08-30T03:47:25.216Z,0.00
2022-08-30T03:48:25.417Z,0.00
2022-08-30T03:49:25.721Z,0.00
2022-08-30T03:50:25.998Z,0.00
2022-08-30T03:51:26.338Z,0.00
2022-08-30T03:52:26.555Z,0.00
2022-08-30T03:53:27.196Z,0.00
2022-08-30T03:54:27.151Z,0.00
2022-08-30T03:55:27.382Z,0.00
2022-08-30T03:56:27.669Z,0.00
2022-08-30T03:57:27.918Z,0.00
2022-08-30T03:58:28.222Z,0.00
2022-08-30T03:59:28.566Z,0.00
2022-08-30T04:00:28.893Z,0.00
2022-08-30T04:01:29.213Z,0.00
2022-08-30T04:02:29.556Z,0.00
2022-08-30T04:03:29.881Z,0.00
2022-08-30T04:04:30.181Z,0.00
2022-08-30T04:05:30.455Z,0.00
2022-08-30T04:06:30.684Z,0.00
2022-08-30T04:07:31.013Z,0.00
2022-08-30T04:08:31.356Z,0.00
2022-08-30T04:09:31.747Z,0.00
2022-08-30T04:10:32.085Z,0.00
2022-08-30T04:11:32.437Z,0.00
2022-08-30T04:12:32.759Z,0.00
2022-08-30T04:13:33.013Z,0.00
2022-08-30T04:14:33.298Z,0.00
2022-08-30T04:15:33.505Z,0.00
2022-08-30T04:16:34.066Z,0.00
2022-08-30T04:17:34.061Z,0.00
2022-08-30T04:18:34.353Z,0.00
2022-08-30T04:19:34.535Z,0.00
2022-08-30T04:20:34.860Z,0.00
2022-08-30T04:21:35.209Z,0.00
2022-08-30T04:22:36.486Z,0.00
2022-08-30T04:23:35.707Z,0.00
2022-08-30T04:24:36.059Z,0.00
2022-08-30T04:25:36.300Z,0.00
2022-08-30T04:26:36.582Z,0.00
2022-08-30T04:27:37.751Z,0.00
2022-08-30T04:28:37.143Z,0.00
2022-08-30T04:29:37.336Z,0.00
2022-08-30T04:30:37.743Z,0.00
2022-08-30T04:31:37.983Z,0.00
2022-08-30T04:32:38.277Z,0.00
2022-08-30T04:33:38.495Z,0.00
2022-08-30T04:34:38.813Z,0.00
2022-08-30T04:35:39.074Z,0.00
2022-08-30T04:36:39.309Z,0.00
2022-08-30T04:37:39.547Z,0.00
2022-08-30T04:38:39.768Z,0.00
2022-08-30T04:39:40.125Z,0.00
2022-08-30T04:40:40.488Z,0.00
2022-08-30T04:41:40.724Z,0.00
2022-08-30T04:42:40.934Z,0.00
2022-08-30T04:43:41.181Z,0.00
2022-08-30T04:44:41.564Z,0.00
2022-08-30T04:45:41.802Z,0.00
2022-08-30T04:46:44.626Z,0.00
2022-08-30T04:47:42.298Z,0.00
2022-08-30T04:48:42.608Z,0.00
2022-08-30T04:49:42.729Z,0.00
2022-08-30T04:50:42.973Z,0.00
2022-08-30T04:51:43.275Z,0.00
2022-08-30T04:52:43.529Z,0.00
2022-08-30T04:53:43.766Z,0.00
2022-08-30T04:54:44.043Z,0.00
2022-08-30T04:55:45.295Z,0.00
2022-08-30T04:56:44.572Z,0.00
2022-08-30T04:57:44.795Z,0.00
2022-08-30T04:58:45.038Z,0.00
2022-08-30T04:59:45.288Z,0.00
2022-08-30T05:00:45.685Z,0.00
2022-08-30T05:01:46.235Z,5.62
2022-08-30T05:02:46.230Z,5.62
2022-08-30T05:03:46.467Z,5.62
2022-08-30T05:04:46.717Z,5.62
2022-08-30T05:05:46.967Z,5.62
2022-08-30T05:06:47.261Z,5.62
2022-08-30T05:07:47.463Z,5.62
2022-08-30T05:08:47.716Z,5.62
2022-08-30T05:09:48.030Z,5.62
2022-08-30T05:10:48.304Z,5.62
2022-08-30T05:11:48.539Z,5.62
2022-08-30T05:12:48.797Z,5.62
2022-08-30T05:13:49.042Z,5.62
2022-08-30T05:14:49.276Z,5.62
2022-08-30T05:15:49.602Z,5.62
2022-08-30T05:16:53.430Z,5.62
2022-08-30T05:17:50.046Z,5.62
2022-08-30T05:18:50.280Z,5.62
2022-08-30T05:19:50.542Z,11.25
2022-08-30T05:20:50.813Z,11.25
2022-08-30T05:21:51.043Z,11.25
2022-08-30T05:22:53.524Z,11.25
2022-08-30T05:23:51.723Z,11.25
2022-08-30T05:24:52.043Z,11.25
2022-08-30T05:25:52.305Z,11.25
2022-08-30T05:26:53.212Z,11.25
2022-08-30T05:27:52.887Z,11.25
2022-08-30T05:28:53.242Z,11.25
2022-08-30T05:29:53.469Z,11.25
2022-08-30T05:30:53.721Z,11.25
2022-08-30T05:31:54.032Z,11.25
2022-08-30T05:32:54.192Z,11.25
2022-08-30T05:33:54.543Z,11.25
2022-08-30T05:34:54.958Z,11.25
2022-08-30T05:35:55.101Z,11.25
2022-08-30T05:36:55.399Z,11.25
2022-08-30T05:37:56.589Z,11.25
2022-08-30T05:38:55.977Z,11.25
2022-08-30T05:39:56.234Z,11.25
2022-08-30T05:40:56.534Z,11.25
2022-08-30T05:41:56.782Z,11.25
2022-08-30T05:42:57.005Z,11.25
2022-08-30T05:43:57.248Z,11.25
2022-08-30T05:44:57.491Z,16.88
2022-08-30T05:45:57.741Z,16.88
2022-08-30T05:46:57.972Z,0.00
2022-08-30T05:47:58.216Z,16.88
2022-08-30T05:48:58.479Z,16.88
2022-08-30T05:49:58.784Z,16.88
2022-08-30T05:50:59.034Z,16.88
2022-08-30T05:51:59.266Z,16.88
2022-08-30T05:52:59.539Z,16.88
2022-08-30T05:53:59.818Z,16.88
2022-08-30T05:55:00.077Z,16.88
2022-08-30T05:56:00.317Z,16.88
2022-08-30T05:57:00.575Z,16.88
2022-08-30T05:58:00.849Z,16.88
2022-08-30T05:59:01.103Z,16.88
2022-08-30T06:00:01.411Z,16.88
2022-08-30T06:01:01.587Z,16.88
2022-08-30T06:02:01.923Z,16.88
2022-08-30T06:03:02.170Z,16.88
2022-08-30T06:04:04.087Z,16.88
2022-08-30T06:05:02.672Z,16.88
2022-08-30T06:06:02.938Z,16.88
2022-08-30T06:07:03.197Z,16.88
2022-08-30T06:08:03.443Z,16.88
2022-08-30T06:09:03.692Z,16.88
2022-08-30T06:10:03.933Z,16.88
2022-08-30T06:11:04.236Z,16.88
2022-08-30T06:12:04.448Z,16.88
2022-08-30T06:13:04.663Z,16.88
2022-08-30T06:14:04.922Z,16.88
2022-08-30T06:15:05.210Z,16.88
2022-08-30T06:16:05.487Z,16.88
2022-08-30T06:17:05.741Z,16.88
2022-08-30T06:18:05.997Z,16.88
2022-08-30T06:19:06.274Z,16.88
2022-08-30T06:20:06.490Z,22.50
2022-08-30T06:21:06.720Z,22.50
2022-08-30T06:22:06.964Z,22.50
2022-08-30T06:23:07.229Z,22.50
2022-08-30T06:24:07.757Z,22.50
2022-08-30T06:25:07.791Z,22.50
2022-08-30T06:26:08.020Z,22.50
2022-08-30T06:27:08.404Z,22.50
2022-08-30T06:28:08.638Z,22.50
2022-08-30T06:29:08.959Z,22.50
2022-08-30T06:30:09.146Z,28.12
2022-08-30T06:31:09.414Z,22.50
2022-08-30T06:32:10.099Z,28.12
2022-08-30T06:33:09.924Z,28.12
2022-08-30T06:34:10.180Z,28.12
2022-08-30T06:35:10.432Z,28.12
2022-08-30T06:36:10.703Z,28.12
2022-08-30T06:37:10.982Z,28.12
2022-08-30T06:38:11.238Z,28.12
2022-08-30T06:39:11.481Z,28.12
2022-08-30T06:40:11.750Z,28.12
2022-08-30T06:41:11.997Z,28.12
2022-08-30T06:42:12.246Z,28.12
2022-08-30T06:43:12.573Z,28.12
2022-08-30T06:44:12.799Z,28.12
2022-08-30T06:45:13.034Z,28.12
2022-08-30T06:46:13.373Z,33.75
2022-08-30T06:47:13.584Z,33.75
2022-08-30T06:48:13.864Z,33.75
2022-08-30T06:49:14.117Z,33.75
2022-08-30T06:50:14.469Z,33.75
2022-08-30T06:51:14.723Z,28.12
2022-08-30T06:52:15.039Z,33.75
2022-08-30T06:53:15.423Z,33.75
2022-08-30T06:54:15.654Z,33.75
2022-08-30T06:55:15.894Z,33.75
2022-08-30T06:56:16.824Z,33.75
2022-08-30T06:57:16.390Z,33.75
2022-08-30T06:58:16.822Z,33.75
2022-08-30T06:59:17.016Z,33.75
2022-08-30T07:00:17.215Z,39.38
2022-08-30T07:01:17.501Z,39.38
2022-08-30T07:02:17.811Z,39.38
2022-08-30T07:03:18.109Z,39.38
2022-08-30T07:04:18.338Z,39.38
2022-08-30T07:05:19.079Z,39.38
2022-08-30T07:06:18.816Z,39.38
2022-08-30T07:07:19.056Z,45.00
2022-08-30T07:08:19.301Z,45.00
2022-08-30T07:09:19.630Z,45.00
2022-08-30T07:10:19.837Z,45.00
2022-08-30T07:11:20.077Z,45.00
2022-08-30T07:12:20.326Z,45.00
2022-08-30T07:13:20.597Z,50.62
2022-08-30T07:14:20.842Z,50.62
2022-08-30T07:15:21.095Z,50.62
2022-08-30T07:16:21.405Z,56.25
2022-08-30T07:17:21.673Z,56.25
2022-08-30T07:18:21.975Z,56.25
2022-08-30T07:19:22.154Z,56.25
2022-08-30T07:20:22.477Z,50.62
2022-08-30T07:21:22.720Z,50.62
2022-08-30T07:22:22.976Z,50.62
2022-08-30T07:23:23.289Z,45.00
2022-08-30T07:24:23.545Z,45.00
2022-08-30T07:25:23.783Z,45.00
2022-08-30T07:26:24.023Z,45.00
2022-08-30T07:27:24.294Z,45.00
2022-08-30T07:28:24.565Z,45.00
2022-08-30T07:29:24.836Z,45.00
2022-08-30T07:30:25.134Z,50.62
2022-08-30T07:31:25.362Z,50.62
2022-08-30T07:32:25.629Z,61.88
2022-08-30T07:33:25.895Z,61.88
2022-08-30T07:34:27.529Z,67.50
2022-08-30T07:35:26.417Z,56.25
2022-08-30T07:36:26.637Z,50.62
2022-08-30T07:37:26.877Z,50.62
2022-08-30T07:38:27.146Z,61.88
2022-08-30T07:39:27.433Z,61.88
2022-08-30T07:40:27.789Z,67.50
2022-08-30T07:41:28.071Z,67.50
2022-08-30T07:42:28.320Z,61.88
2022-08-30T07:43:28.615Z,67.50
2022-08-30T07:44:28.900Z,67.50
2022-08-30T07:45:29.148Z,67.50
2022-08-30T07:46:29.535Z,67.50
2022-08-30T07:47:29.675Z,67.50
2022-08-30T07:48:29.966Z,67.50
2022-08-30T07:49:30.200Z,67.50
2022-08-30T07:50:30.601Z,73.12
2022-08-30T07:51:30.690Z,67.50
2022-08-30T07:52:31.557Z,67.50
2022-08-30T07:53:31.276Z,73.12
2022-08-30T07:54:31.509Z,67.50
2022-08-30T07:55:31.753Z,67.50
2022-08-30T07:56:31.999Z,73.12
2022-08-30T07:57:32.290Z,73.12
2022-08-30T07:58:32.576Z,78.75
2022-08-30T07:59:35.621Z,90.00
2022-08-30T08:00:33.129Z,95.62
2022-08-30T08:01:33.443Z,95.62
2022-08-30T08:02:33.700Z,101.25
2022-08-30T08:03:34.040Z,101.25
2022-08-30T08:04:34.236Z,101.25
2022-08-30T08:05:34.493Z,106.88
2022-08-30T08:06:35.297Z,106.88
2022-08-30T08:07:35.033Z,106.88
2022-08-30T08:08:35.325Z,106.88
2022-08-30T08:09:35.582Z,112.50
2022-08-30T08:10:35.874Z,112.50
2022-08-30T08:11:36.242Z,118.12
2022-08-30T08:12:36.447Z,123.75
2022-08-30T08:13:36.697Z,112.50
2022-08-30T08:14:38.035Z,118.12
2022-08-30T08:15:37.239Z,123.75
2022-08-30T08:16:37.541Z,129.38
2022-08-30T08:17:37.788Z,129.38
2022-08-30T08:18:38.126Z,129.38
2022-08-30T08:19:38.337Z,123.75
2022-08-30T08:20:38.663Z,118.12
2022-08-30T08:21:38.879Z,106.88
2022-08-30T08:22:40.162Z,112.50
2022-08-30T08:23:39.409Z,123.75
2022-08-30T08:24:39.641Z,135.00
2022-08-30T08:25:39.912Z,140.62
2022-08-30T08:26:41.130Z,146.25
2022-08-30T08:27:41.499Z,151.88
2022-08-30T08:28:40.777Z,157.50
2022-08-30T08:29:41.076Z,163.12
2022-08-30T08:30:44.063Z,163.12
2022-08-30T08:31:42.664Z,157.50
2022-08-30T08:32:41.908Z,129.38
2022-08-30T08:33:42.145Z,140.62
2022-08-30T08:34:42.446Z,135.00
2022-08-30T08:35:42.716Z,135.00
2022-08-30T08:36:43.009Z,140.62
2022-08-30T08:37:43.240Z,135.00
2022-08-30T08:38:43.464Z,129.38
2022-08-30T08:39:43.725Z,112.50
2022-08-30T08:40:44.058Z,118.12
2022-08-30T08:41:44.275Z,123.75
2022-08-30T08:42:44.524Z,123.75
2022-08-30T08:43:44.787Z,118.12
2022-08-30T08:44:45.062Z,118.12
2022-08-30T08:45:45.291Z,123.75
2022-08-30T08:46:45.639Z,146.25
2022-08-30T08:47:45.803Z,157.50
2022-08-30T08:48:59.444Z,163.12
2022-08-30T08:49:47.354Z,168.75
2022-08-30T08:50:46.632Z,157.50
2022-08-30T08:51:47.015Z,163.12
2022-08-30T08:52:48.232Z,191.25
2022-08-30T08:53:47.564Z,225.00
2022-08-30T08:54:47.836Z,247.50
2022-08-30T08:55:48.682Z,270.00
2022-08-30T08:56:48.364Z,230.62
2022-08-30T08:57:48.680Z,236.25
2022-08-30T08:58:48.870Z,230.62
2022-08-30T08:59:49.165Z,174.38
2022-08-30T09:00:49.457Z,168.75
2022-08-30T09:01:49.762Z,168.75
2022-08-30T09:02:53.889Z,168.75
2022-08-30T09:03:51.205Z,157.50
2022-08-30T09:04:50.500Z,151.88
2022-08-30T09:05:50.765Z,157.50
2022-08-30T09:06:51.115Z,151.88
2022-08-30T09:07:51.348Z,146.25
2022-08-30T09:08:51.656Z,140.62
2022-08-30T09:09:51.944Z,151.88
2022-08-30T09:10:52.301Z,151.88
2022-08-30T09:11:52.567Z,151.88
2022-08-30T09:12:55.735Z,157.50
2022-08-30T09:13:54.069Z,157.50
2022-08-30T09:14:54.518Z,163.12
2022-08-30T09:15:54.866Z,157.50
2022-08-30T09:16:54.095Z,180.00
2022-08-30T09:17:54.324Z,185.62
2022-08-30T09:18:54.796Z,191.25
2022-08-30T09:19:54.913Z,202.50
2022-08-30T09:20:55.125Z,196.88
2022-08-30T09:21:55.451Z,196.88
2022-08-30T09:22:55.660Z,202.50
2022-08-30T09:23:55.926Z,196.88
2022-08-30T09:24:56.251Z,196.88
2022-08-30T09:25:56.541Z,208.12
2022-08-30T09:26:56.838Z,191.25
2022-08-30T09:27:57.016Z,180.00
2022-08-30T09:28:57.270Z,157.50
2022-08-30T09:29:57.476Z,146.25
2022-08-30T09:30:57.862Z,146.25
2022-08-30T09:32:25.066Z,135.00
2022-08-30T09:32:59.303Z,129.38
2022-08-30T09:33:58.590Z,135.00
2022-08-30T09:34:58.849Z,151.88
2022-08-30T09:35:59.131Z,196.88
2022-08-30T09:36:59.364Z,247.50
2022-08-30T09:37:59.674Z,286.88
2022-08-30T09:39:00.139Z,286.88
2022-08-30T09:40:00.281Z,230.62
2022-08-30T09:41:00.573Z,219.38
2022-08-30T09:42:00.846Z,213.75
2022-08-30T09:43:01.120Z,320.62
2022-08-30T09:44:01.441Z,540.00
2022-08-30T09:45:01.707Z,585.00
2022-08-30T09:46:02.031Z,528.75
2022-08-30T09:47:02.252Z,511.88
2022-08-30T09:48:02.538Z,534.38
2022-08-30T09:49:02.812Z,500.62
2022-08-30T09:50:03.111Z,371.25
2022-08-30T09:51:03.371Z,275.62
2022-08-30T09:52:03.640Z,393.75
2022-08-30T09:53:03.999Z,500.62
2022-08-30T09:54:17.178Z,568.12
2022-08-30T09:55:05.501Z,585.00
2022-08-30T09:56:05.306Z,573.75
2022-08-30T09:57:05.008Z,528.75
2022-08-30T09:58:06.256Z,562.50
2022-08-30T09:59:05.521Z,590.62
2022-08-30T10:00:05.772Z,607.50
2022-08-30T10:01:06.092Z,624.38
2022-08-30T10:02:06.378Z,618.75
2022-08-30T10:03:06.596Z,686.25
2022-08-30T10:04:06.977Z,697.50
2022-08-30T10:05:07.198Z,646.88
2022-08-30T10:06:07.496Z,669.38
2022-08-30T10:07:07.771Z,663.75
2022-08-30T10:08:08.018Z,641.25
2022-08-30T10:09:08.258Z,618.75
2022-08-30T10:10:08.564Z,641.25
2022-08-30T10:11:08.823Z,646.88
2022-08-30T10:12:09.082Z,669.38
2022-08-30T10:13:09.432Z,675.00
2022-08-30T10:14:09.671Z,691.88
2022-08-30T10:15:09.928Z,714.38
2022-08-30T10:16:10.171Z,736.88
2022-08-30T10:17:10.444Z,742.50
2022-08-30T10:18:10.721Z,759.38
2022-08-30T10:19:10.963Z,731.25
2022-08-30T10:20:11.231Z,759.38
2022-08-30T10:21:14.510Z,781.88
2022-08-30T10:22:12.836Z,776.25
2022-08-30T10:23:12.143Z,770.62
2022-08-30T10:24:12.361Z,855.00
2022-08-30T10:25:16.035Z,871.88
2022-08-30T10:26:12.861Z,815.62
2022-08-30T10:27:13.109Z,866.25
2022-08-30T10:28:13.360Z,686.25
2022-08-30T10:29:13.674Z,720.00
2022-08-30T10:30:14.013Z,815.62
2022-08-30T10:31:14.285Z,776.25
2022-08-30T10:32:14.547Z,781.88
2022-08-30T10:33:14.786Z,703.12
2022-08-30T10:34:15.088Z,736.88
2022-08-30T10:35:19.294Z,720.00
2022-08-30T10:36:15.684Z,703.12
2022-08-30T10:37:16.611Z,714.38
2022-08-30T10:38:16.299Z,635.62
2022-08-30T10:39:16.489Z,601.88
2022-08-30T10:40:16.791Z,613.12
2022-08-30T10:41:17.030Z,630.00
2022-08-30T10:42:17.287Z,646.88
2022-08-30T10:43:17.813Z,635.62
2022-08-30T10:44:17.824Z,725.62
2022-08-30T10:45:18.120Z,759.38
2022-08-30T10:46:18.408Z,725.62
2022-08-30T10:47:23.072Z,742.50
2022-08-30T10:48:19.305Z,770.62
2022-08-30T10:49:19.260Z,759.38
2022-08-30T10:50:19.530Z,275.62
2022-08-30T10:51:19.802Z,720.00
2022-08-30T10:52:20.074Z,781.88
2022-08-30T10:53:20.366Z,731.25
2022-08-30T10:54:20.610Z,686.25
2022-08-30T10:55:20.860Z,675.00
2022-08-30T10:56:21.113Z,720.00
2022-08-30T10:57:21.422Z,725.62
2022-08-30T10:58:21.714Z,843.75
2022-08-30T10:59:21.954Z,776.25
2022-08-30T11:00:22.200Z,731.25
2022-08-30T11:01:26.705Z,697.50
2022-08-30T11:02:23.724Z,770.62
2022-08-30T11:03:23.100Z,793.12
2022-08-30T11:04:23.316Z,810.00
2022-08-30T11:05:23.572Z,866.25
2022-08-30T11:06:23.840Z,900.00
2022-08-30T11:07:24.068Z,787.50
2022-08-30T11:08:24.419Z,843.75
2022-08-30T11:09:24.726Z,866.25
2022-08-30T11:10:25.585Z,849.38
2022-08-30T11:11:25.345Z,810.00
2022-08-30T11:12:25.565Z,781.88
2022-08-30T11:13:25.874Z,815.62
2022-08-30T11:14:26.090Z,871.88
2022-08-30T11:15:26.354Z,838.12
2022-08-30T11:16:26.685Z,635.62
2022-08-30T11:17:26.947Z,658.12
2022-08-30T11:18:27.236Z,804.38
2022-08-30T11:19:27.556Z,804.38
2022-08-30T11:20:28.690Z,765.00
2022-08-30T11:21:27.986Z,748.12
2022-08-30T11:22:28.264Z,759.38
2022-08-30T11:23:29.073Z,905.62
2022-08-30T11:24:28.916Z,900.00
2022-08-30T11:25:29.164Z,883.12
2022-08-30T11:26:29.473Z,973.12
2022-08-30T11:27:29.734Z,1006.88
2022-08-30T11:28:30.025Z,990.00
2022-08-30T11:29:32.282Z,990.00
2022-08-30T11:30:30.601Z,1018.12
2022-08-30T11:31:30.870Z,950.62
2022-08-30T11:32:31.150Z,900.00
2022-08-30T11:33:31.456Z,900.00
2022-08-30T11:34:32.256Z,894.38
2022-08-30T11:35:32.006Z,990.00
2022-08-30T11:36:37.041Z,990.00
2022-08-30T11:37:33.607Z,838.12
2022-08-30T11:38:32.909Z,748.12
2022-08-30T11:39:33.250Z,849.38
2022-08-30T11:40:33.484Z,990.00
2022-08-30T11:41:34.200Z,950.62
2022-08-30T11:42:34.053Z,883.12
2022-08-30T11:43:34.273Z,933.75
2022-08-30T11:44:35.135Z,956.25
2022-08-30T11:45:35.349Z,967.50
2022-08-30T11:46:35.083Z,900.00
2022-08-30T11:47:35.363Z,922.50
2022-08-30T11:48:36.585Z,928.12
2022-08-30T11:49:35.963Z,967.50
2022-08-30T11:50:36.259Z,950.62
2022-08-30T11:51:37.011Z,883.12
2022-08-30T11:52:36.855Z,866.25
2022-08-30T11:53:37.114Z,900.00
2022-08-30T11:54:37.323Z,973.12
2022-08-30T11:55:37.678Z,1006.88
2022-08-30T11:56:37.945Z,978.75
2022-08-30T11:57:38.165Z,961.88
2022-08-30T11:58:38.449Z,916.88
2022-08-30T11:59:39.712Z,877.50
2022-08-30T12:00:38.997Z,410.62
2022-08-30T12:01:51.296Z,230.62
2022-08-30T12:02:40.618Z,281.25
2022-08-30T12:03:40.029Z,731.25
2022-08-30T12:04:40.220Z,810.00
2022-08-30T12:05:40.493Z,826.88
2022-08-30T12:06:40.836Z,776.25
2022-08-30T12:07:40.971Z,905.62
2022-08-30T12:08:41.213Z,961.88
2022-08-30T12:09:41.703Z,945.00
2022-08-30T12:10:41.919Z,973.12
2022-08-30T12:11:42.269Z,1012.50
2022-08-30T12:12:42.452Z,928.12
2022-08-30T12:13:42.765Z,900.00
2022-08-30T12:14:42.987Z,939.38
2022-08-30T12:15:43.278Z,905.62
2022-08-30T12:16:43.548Z,883.12
2022-08-30T12:17:43.781Z,866.25
2022-08-30T12:18:44.523Z,961.88
2022-08-30T12:19:49.032Z,821.25
2022-08-30T12:20:45.550Z,753.75
2022-08-30T12:21:45.324Z,798.75
2022-08-30T12:22:45.139Z,793.12
2022-08-30T12:23:45.414Z,793.12
2022-08-30T12:24:45.678Z,703.12
2022-08-30T12:25:45.916Z,438.75
2022-08-30T12:26:46.251Z,607.50
2022-08-30T12:27:46.572Z,652.50
2022-08-30T12:28:46.821Z,337.50
2022-08-30T12:29:47.083Z,202.50
2022-08-30T12:30:47.380Z,202.50
2022-08-30T12:31:47.691Z,196.88
2022-08-30T12:32:48.776Z,202.50
2022-08-30T12:33:48.279Z,208.12
2022-08-30T12:34:48.610Z,208.12
2022-08-30T12:35:48.878Z,213.75
2022-08-30T12:36:49.157Z,196.88
2022-08-30T12:37:49.424Z,202.50
2022-08-30T12:38:49.670Z,202.50
2022-08-30T12:39:53.801Z,219.38
2022-08-30T12:40:50.298Z,213.75
2022-08-30T12:41:50.564Z,208.12
2022-08-30T12:42:50.850Z,163.12
2022-08-30T12:43:51.096Z,151.88
2022-08-30T12:44:51.343Z,146.25
2022-08-30T12:45:51.706Z,140.62
2022-08-30T12:46:55.945Z,135.00
2022-08-30T12:47:53.197Z,140.62
2022-08-30T12:48:52.491Z,151.88
2022-08-30T12:49:52.712Z,157.50
2022-08-30T12:50:52.929Z,163.12
2022-08-30T12:51:53.230Z,168.75
2022-08-30T12:52:53.445Z,168.75
2022-08-30T12:53:53.806Z,163.12
2022-08-30T12:54:53.970Z,151.88
2022-08-30T12:55:54.263Z,151.88
2022-08-30T12:56:54.506Z,151.88
2022-08-30T12:57:54.756Z,174.38